sensor_id;sensor_type;location;lat;lon;timestamp;P1;durP1;ratioP1;P2;durP2;ratioP2
77581;SDS011;66726;52.388;9.986;2023-08-30T00:01:42;6.03;;;3.30;;
77581;SDS011;66726;52.388;9.986;2023-08-30T00:04:14;4.23;;;3.40;;
77581;SDS011;66726;52.388;9.986;2023-08-30T00:06:48;6.60;;;3.47;;
77581;SDS011;66726;52.388;9.986;2023-08-30T00:09:21;4.97;;;3.50;;
77581;SDS011;66726;52.388;9.986;2023-08-30T00:11:53;5.67;;;3.63;;
77581;SDS011;66726;52.388;9.986;2023-08-30T00:14:26;7.00;;;3.47;;
77581;SDS011;66726;52.388;9.986;2023-08-30T00:16:58;3.67;;;3.00;;
77581;SDS011;66726;52.388;9.986;2023-08-30T00:19:30;6.40;;;3.57;;
77581;SDS011;66726;52.388;9.986;2023-08-30T00:22:02;3.93;;;3.43;;
77581;SDS011;66726;52.388;9.986;2023-08-30T00:24:35;4.57;;;3.50;;
77581;SDS011;66726;52.388;9.986;2023-08-30T00:27:07;3.70;;;3.10;;
77581;SDS011;66726;52.388;9.986;2023-08-30T00:29:40;4.73;;;3.00;;
77581;SDS011;66726;52.388;9.986;2023-08-30T00:32:12;4.10;;;3.10;;
77581;SDS011;66726;52.388;9.986;2023-08-30T00:34:44;5.30;;;3.30;;
77581;SDS011;66726;52.388;9.986;2023-08-30T00:37:19;4.57;;;3.43;;
77581;SDS011;66726;52.388;9.986;2023-08-30T00:39:50;4.17;;;3.40;;
77581;SDS011;66726;52.388;9.986;2023-08-30T00:42:22;4.23;;;3.50;;
77581;SDS011;66726;52.388;9.986;2023-08-30T00:44:56;4.63;;;3.70;;
77581;SDS011;66726;52.388;9.986;2023-08-30T00:47:28;5.13;;;3.30;;
77581;SDS011;66726;52.388;9.986;2023-08-30T00:50:00;5.13;;;3.70;;
77581;SDS011;66726;52.388;9.986;2023-08-30T00:52:34;3.67;;;2.93;;
77581;SDS011;66726;52.388;9.986;2023-08-30T00:55:06;3.97;;;2.80;;
77581;SDS011;66726;52.388;9.986;2023-08-30T00:57:39;5.93;;;3.17;;
77581;SDS011;66726;52.388;9.986;2023-08-30T01:00:15;5.63;;;3.30;;
77581;SDS011;66726;52.388;9.986;2023-08-30T01:02:47;6.43;;;3.47;;
77581;SDS011;66726;52.388;9.986;2023-08-30T01:05:19;5.47;;;3.40;;
77581;SDS011;66726;52.388;9.986;2023-08-30T01:07:51;4.50;;;3.47;;
77581;SDS011;66726;52.388;9.986;2023-08-30T01:10:25;3.97;;;3.00;;
77581;SDS011;66726;52.388;9.986;2023-08-30T01:13:16;3.90;;;3.23;;
77581;SDS011;66726;52.388;9.986;2023-08-30T01:15:52;4.70;;;3.20;;
77581;SDS011;66726;52.388;9.986;2023-08-30T01:18:26;3.40;;;3.10;;
77581;SDS011;66726;52.388;9.986;2023-08-30T01:21:03;4.93;;;3.20;;
77581;SDS011;66726;52.388;9.986;2023-08-30T01:23:49;3.53;;;2.90;;
77581;SDS011;66726;52.388;9.986;2023-08-30T01:26:29;5.03;;;3.00;;
77581;SDS011;66726;52.388;9.986;2023-08-30T01:29:13;7.20;;;3.73;;
77581;SDS011;66726;52.388;9.986;2023-08-30T01:31:48;5.73;;;3.33;;
77581;SDS011;66726;52.388;9.986;2023-08-30T01:34:22;4.37;;;3.13;;
77581;SDS011;66726;52.388;9.986;2023-08-30T01:36:54;3.50;;;3.20;;
77581;SDS011;66726;52.388;9.986;2023-08-30T01:39:26;4.87;;;3.50;;
77581;SDS011;66726;52.388;9.986;2023-08-30T01:42:00;3.93;;;3.47;;
77581;SDS011;66726;52.388;9.986;2023-08-30T01:44:35;4.13;;;2.90;;
77581;SDS011;66726;52.388;9.986;2023-08-30T01:47:11;3.97;;;3.47;;
77581;SDS011;66726;52.388;9.986;2023-08-30T01:49:43;4.53;;;3.10;;
77581;SDS011;66726;52.388;9.986;2023-08-30T01:52:17;5.50;;;3.10;;
77581;SDS011;66726;52.388;9.986;2023-08-30T01:54:50;3.73;;;3.20;;
77581;SDS011;66726;52.388;9.986;2023-08-30T01:57:24;4.67;;;3.23;;
77581;SDS011;66726;52.388;9.986;2023-08-30T01:59:57;6.40;;;3.50;;
77581;SDS011;66726;52.388;9.986;2023-08-30T02:02:29;3.87;;;3.40;;
77581;SDS011;66726;52.388;9.986;2023-08-30T02:05:03;6.53;;;3.93;;
77581;SDS011;66726;52.388;9.986;2023-08-30T02:07:37;4.37;;;3.47;;
77581;SDS011;66726;52.388;9.986;2023-08-30T02:10:15;5.47;;;3.70;;
77581;SDS011;66726;52.388;9.986;2023-08-30T02:12:51;4.77;;;3.87;;
77581;SDS011;66726;52.388;9.986;2023-08-30T02:15:27;4.47;;;3.70;;
77581;SDS011;66726;52.388;9.986;2023-08-30T02:18:03;3.67;;;3.30;;
77581;SDS011;66726;52.388;9.986;2023-08-30T02:20:37;4.43;;;3.97;;
77581;SDS011;66726;52.388;9.986;2023-08-30T02:23:09;3.90;;;3.57;;
77581;SDS011;66726;52.388;9.986;2023-08-30T02:25:41;4.43;;;3.60;;
77581;SDS011;66726;52.388;9.986;2023-08-30T02:28:13;4.70;;;3.60;;
77581;SDS011;66726;52.388;9.986;2023-08-30T02:30:46;4.43;;;3.50;;
77581;SDS011;66726;52.388;9.986;2023-08-30T02:33:20;5.10;;;3.90;;
77581;SDS011;66726;52.388;9.986;2023-08-30T02:35:51;4.93;;;3.87;;
77581;SDS011;66726;52.388;9.986;2023-08-30T02:38:23;4.13;;;3.57;;
77581;SDS011;66726;52.388;9.986;2023-08-30T02:40:55;4.80;;;3.13;;
77581;SDS011;66726;52.388;9.986;2023-08-30T02:43:27;4.43;;;3.63;;
77581;SDS011;66726;52.388;9.986;2023-08-30T02:46:00;3.80;;;3.43;;
77581;SDS011;66726;52.388;9.986;2023-08-30T02:48:32;3.37;;;3.07;;
77581;SDS011;66726;52.388;9.986;2023-08-30T02:51:04;4.70;;;3.23;;
77581;SDS011;66726;52.388;9.986;2023-08-30T02:53:36;4.13;;;3.50;;
77581;SDS011;66726;52.388;9.986;2023-08-30T02:56:08;4.10;;;3.33;;
77581;SDS011;66726;52.388;9.986;2023-08-30T02:58:40;3.83;;;3.30;;
77581;SDS011;66726;52.388;9.986;2023-08-30T03:01:13;6.30;;;3.60;;
77581;SDS011;66726;52.388;9.986;2023-08-30T03:03:45;4.27;;;3.87;;
77581;SDS011;66726;52.388;9.986;2023-08-30T03:06:17;5.43;;;3.90;;
77581;SDS011;66726;52.388;9.986;2023-08-30T03:08:49;5.23;;;3.93;;
77581;SDS011;66726;52.388;9.986;2023-08-30T03:11:22;4.10;;;3.80;;
77581;SDS011;66726;52.388;9.986;2023-08-30T03:13:54;4.30;;;3.90;;
77581;SDS011;66726;52.388;9.986;2023-08-30T03:16:27;4.50;;;3.70;;
77581;SDS011;66726;52.388;9.986;2023-08-30T03:18:59;4.17;;;3.77;;
77581;SDS011;66726;52.388;9.986;2023-08-30T03:21:32;3.90;;;3.60;;
77581;SDS011;66726;52.388;9.986;2023-08-30T03:24:04;4.63;;;4.00;;
77581;SDS011;66726;52.388;9.986;2023-08-30T03:26:36;4.23;;;3.57;;
77581;SDS011;66726;52.388;9.986;2023-08-30T03:29:09;4.63;;;3.67;;
77581;SDS011;66726;52.388;9.986;2023-08-30T03:31:42;4.70;;;3.40;;
77581;SDS011;66726;52.388;9.986;2023-08-30T03:34:14;3.67;;;3.37;;
77581;SDS011;66726;52.388;9.986;2023-08-30T03:36:46;4.13;;;3.63;;
77581;SDS011;66726;52.388;9.986;2023-08-30T03:39:20;4.50;;;3.97;;
77581;SDS011;66726;52.388;9.986;2023-08-30T03:41:52;3.73;;;3.43;;
77581;SDS011;66726;52.388;9.986;2023-08-30T03:44:24;4.53;;;3.73;;
77581;SDS011;66726;52.388;9.986;2023-08-30T03:46:57;5.80;;;3.60;;
77581;SDS011;66726;52.388;9.986;2023-08-30T03:49:28;4.57;;;3.90;;
77581;SDS011;66726;52.388;9.986;2023-08-30T03:52:00;4.13;;;3.67;;
77581;SDS011;66726;52.388;9.986;2023-08-30T03:54:33;4.13;;;3.73;;
77581;SDS011;66726;52.388;9.986;2023-08-30T03:57:05;4.50;;;4.10;;
77581;SDS011;66726;52.388;9.986;2023-08-30T03:59:37;3.90;;;3.50;;
77581;SDS011;66726;52.388;9.986;2023-08-30T04:02:10;5.70;;;4.13;;
77581;SDS011;66726;52.388;9.986;2023-08-30T04:04:42;3.90;;;3.60;;
77581;SDS011;66726;52.388;9.986;2023-08-30T04:07:15;4.90;;;3.97;;
77581;SDS011;66726;52.388;9.986;2023-08-30T04:09:47;5.20;;;4.20;;
77581;SDS011;66726;52.388;9.986;2023-08-30T04:12:19;5.70;;;4.10;;
77581;SDS011;66726;52.388;9.986;2023-08-30T04:14:51;5.50;;;4.17;;
77581;SDS011;66726;52.388;9.986;2023-08-30T04:17:24;8.63;;;4.40;;
77581;SDS011;66726;52.388;9.986;2023-08-30T04:19:56;5.27;;;4.73;;
77581;SDS011;66726;52.388;9.986;2023-08-30T04:22:30;5.43;;;4.20;;
77581;SDS011;66726;52.388;9.986;2023-08-30T04:25:03;7.00;;;4.60;;
77581;SDS011;66726;52.388;9.986;2023-08-30T04:27:36;5.43;;;4.47;;
77581;SDS011;66726;52.388;9.986;2023-08-30T04:30:09;6.63;;;5.30;;
77581;SDS011;66726;52.388;9.986;2023-08-30T04:32:43;6.20;;;4.63;;
77581;SDS011;66726;52.388;9.986;2023-08-30T04:35:15;7.17;;;4.53;;
77581;SDS011;66726;52.388;9.986;2023-08-30T04:37:47;9.83;;;5.07;;
77581;SDS011;66726;52.388;9.986;2023-08-30T04:40:19;8.50;;;4.83;;
77581;SDS011;66726;52.388;9.986;2023-08-30T04:42:52;7.50;;;4.70;;
77581;SDS011;66726;52.388;9.986;2023-08-30T04:45:24;4.67;;;4.27;;
77581;SDS011;66726;52.388;9.986;2023-08-30T04:47:57;5.73;;;4.80;;
77581;SDS011;66726;52.388;9.986;2023-08-30T04:50:29;10.83;;;4.73;;
77581;SDS011;66726;52.388;9.986;2023-08-30T04:53:01;7.77;;;5.37;;
77581;SDS011;66726;52.388;9.986;2023-08-30T04:55:33;6.33;;;5.00;;
77581;SDS011;66726;52.388;9.986;2023-08-30T04:58:05;7.57;;;5.03;;
77581;SDS011;66726;52.388;9.986;2023-08-30T05:00:37;5.73;;;5.13;;
77581;SDS011;66726;52.388;9.986;2023-08-30T05:03:10;5.77;;;5.20;;
77581;SDS011;66726;52.388;9.986;2023-08-30T05:05:44;7.80;;;5.20;;
77581;SDS011;66726;52.388;9.986;2023-08-30T05:08:15;7.77;;;5.33;;
77581;SDS011;66726;52.388;9.986;2023-08-30T05:10:47;6.00;;;5.40;;
77581;SDS011;66726;52.388;9.986;2023-08-30T05:13:20;8.23;;;5.50;;
77581;SDS011;66726;52.388;9.986;2023-08-30T05:15:52;7.57;;;5.63;;
77581;SDS011;66726;52.388;9.986;2023-08-30T05:18:25;6.57;;;5.87;;
77581;SDS011;66726;52.388;9.986;2023-08-30T05:20:57;7.03;;;5.87;;
77581;SDS011;66726;52.388;9.986;2023-08-30T05:23:30;11.20;;;6.10;;
77581;SDS011;66726;52.388;9.986;2023-08-30T05:26:04;11.40;;;5.87;;
77581;SDS011;66726;52.388;9.986;2023-08-30T05:28:36;7.13;;;4.83;;
77581;SDS011;66726;52.388;9.986;2023-08-30T05:31:07;7.27;;;5.20;;
77581;SDS011;66726;52.388;9.986;2023-08-30T05:33:41;9.20;;;5.70;;
77581;SDS011;66726;52.388;9.986;2023-08-30T05:36:13;6.13;;;5.53;;
77581;SDS011;66726;52.388;9.986;2023-08-30T05:38:45;6.30;;;5.70;;
77581;SDS011;66726;52.388;9.986;2023-08-30T05:41:17;6.70;;;5.73;;
77581;SDS011;66726;52.388;9.986;2023-08-30T05:43:49;6.47;;;5.87;;
77581;SDS011;66726;52.388;9.986;2023-08-30T05:46:21;6.80;;;6.07;;
77581;SDS011;66726;52.388;9.986;2023-08-30T05:48:54;6.77;;;5.90;;
77581;SDS011;66726;52.388;9.986;2023-08-30T05:51:26;7.83;;;6.50;;
77581;SDS011;66726;52.388;9.986;2023-08-30T05:53:58;6.93;;;6.23;;
77581;SDS011;66726;52.388;9.986;2023-08-30T05:56:30;8.60;;;6.03;;
77581;SDS011;66726;52.388;9.986;2023-08-30T05:59:02;8.73;;;6.73;;
77581;SDS011;66726;52.388;9.986;2023-08-30T06:01:34;7.27;;;6.57;;
77581;SDS011;66726;52.388;9.986;2023-08-30T06:04:07;8.53;;;7.10;;
77581;SDS011;66726;52.388;9.986;2023-08-30T06:06:40;7.40;;;6.33;;
77581;SDS011;66726;52.388;9.986;2023-08-30T06:09:11;7.23;;;6.53;;
77581;SDS011;66726;52.388;9.986;2023-08-30T06:11:44;7.50;;;6.60;;
77581;SDS011;66726;52.388;9.986;2023-08-30T06:14:16;12.37;;;6.30;;
77581;SDS011;66726;52.388;9.986;2023-08-30T06:16:48;6.77;;;6.10;;
77581;SDS011;66726;52.388;9.986;2023-08-30T06:19:22;7.67;;;6.87;;
77581;SDS011;66726;52.388;9.986;2023-08-30T06:21:54;7.07;;;6.37;;
77581;SDS011;66726;52.388;9.986;2023-08-30T06:24:26;7.40;;;6.10;;
77581;SDS011;66726;52.388;9.986;2023-08-30T06:26:57;7.30;;;6.50;;
77581;SDS011;66726;52.388;9.986;2023-08-30T06:29:29;7.27;;;6.53;;
77581;SDS011;66726;52.388;9.986;2023-08-30T06:32:01;8.20;;;6.40;;
77581;SDS011;66726;52.388;9.986;2023-08-30T06:34:35;9.40;;;6.67;;
77581;SDS011;66726;52.388;9.986;2023-08-30T06:37:07;8.07;;;5.93;;
77581;SDS011;66726;52.388;9.986;2023-08-30T06:39:39;11.60;;;5.47;;
77581;SDS011;66726;52.388;9.986;2023-08-30T06:42:11;7.40;;;5.90;;
77581;SDS011;66726;52.388;9.986;2023-08-30T06:44:43;7.37;;;5.93;;
77581;SDS011;66726;52.388;9.986;2023-08-30T06:47:14;6.93;;;5.97;;
77581;SDS011;66726;52.388;9.986;2023-08-30T06:49:48;8.43;;;6.27;;
77581;SDS011;66726;52.388;9.986;2023-08-30T06:52:20;6.13;;;5.47;;
77581;SDS011;66726;52.388;9.986;2023-08-30T06:54:52;6.77;;;5.50;;
77581;SDS011;66726;52.388;9.986;2023-08-30T06:57:24;8.80;;;5.97;;
77581;SDS011;66726;52.388;9.986;2023-08-30T06:59:56;6.07;;;5.47;;
77581;SDS011;66726;52.388;9.986;2023-08-30T07:02:33;6.30;;;5.57;;
77581;SDS011;66726;52.388;9.986;2023-08-30T07:05:07;6.27;;;5.67;;
77581;SDS011;66726;52.388;9.986;2023-08-30T07:07:40;7.17;;;5.20;;
77581;SDS011;66726;52.388;9.986;2023-08-30T07:10:11;6.50;;;5.90;;
77581;SDS011;66726;52.388;9.986;2023-08-30T07:12:43;6.90;;;5.43;;
77581;SDS011;66726;52.388;9.986;2023-08-30T07:15:15;6.70;;;5.80;;
77581;SDS011;66726;52.388;9.986;2023-08-30T07:17:47;7.93;;;6.23;;
77581;SDS011;66726;52.388;9.986;2023-08-30T07:20:23;8.77;;;5.93;;
77581;SDS011;66726;52.388;9.986;2023-08-30T07:22:55;7.73;;;6.27;;
77581;SDS011;66726;52.388;9.986;2023-08-30T07:25:29;6.60;;;5.70;;
77581;SDS011;66726;52.388;9.986;2023-08-30T07:28:03;10.10;;;6.30;;
77581;SDS011;66726;52.388;9.986;2023-08-30T07:30:36;6.73;;;5.50;;
77581;SDS011;66726;52.388;9.986;2023-08-30T07:33:08;7.03;;;6.00;;
77581;SDS011;66726;52.388;9.986;2023-08-30T07:35:41;7.00;;;6.20;;
77581;SDS011;66726;52.388;9.986;2023-08-30T07:38:13;6.77;;;6.13;;
77581;SDS011;66726;52.388;9.986;2023-08-30T07:40:45;8.17;;;7.10;;
77581;SDS011;66726;52.388;9.986;2023-08-30T07:43:17;6.37;;;5.77;;
77581;SDS011;66726;52.388;9.986;2023-08-30T07:45:49;6.90;;;5.07;;
77581;SDS011;66726;52.388;9.986;2023-08-30T07:48:20;7.07;;;6.47;;
77581;SDS011;66726;52.388;9.986;2023-08-30T07:50:54;8.27;;;7.27;;
77581;SDS011;66726;52.388;9.986;2023-08-30T07:53:27;7.90;;;6.50;;
77581;SDS011;66726;52.388;9.986;2023-08-30T07:55:59;7.47;;;6.67;;
77581;SDS011;66726;52.388;9.986;2023-08-30T07:58:30;6.63;;;5.93;;
77581;SDS011;66726;52.388;9.986;2023-08-30T08:01:02;8.13;;;7.03;;
77581;SDS011;66726;52.388;9.986;2023-08-30T08:03:37;8.97;;;7.03;;
77581;SDS011;66726;52.388;9.986;2023-08-30T08:06:30;7.83;;;7.03;;
77581;SDS011;66726;52.388;9.986;2023-08-30T08:09:03;7.50;;;6.80;;
77581;SDS011;66726;52.388;9.986;2023-08-30T08:11:35;8.17;;;7.37;;
77581;SDS011;66726;52.388;9.986;2023-08-30T08:14:09;7.17;;;6.50;;
77581;SDS011;66726;52.388;9.986;2023-08-30T08:16:42;8.50;;;6.37;;
77581;SDS011;66726;52.388;9.986;2023-08-30T08:19:14;10.97;;;7.70;;
77581;SDS011;66726;52.388;9.986;2023-08-30T08:21:52;9.20;;;6.70;;
77581;SDS011;66726;52.388;9.986;2023-08-30T08:24:24;8.10;;;7.17;;
77581;SDS011;66726;52.388;9.986;2023-08-30T08:26:55;10.37;;;8.37;;
77581;SDS011;66726;52.388;9.986;2023-08-30T08:29:28;9.27;;;7.47;;
77581;SDS011;66726;52.388;9.986;2023-08-30T08:32:00;9.23;;;7.87;;
77581;SDS011;66726;52.388;9.986;2023-08-30T08:34:33;10.63;;;9.20;;
77581;SDS011;66726;52.388;9.986;2023-08-30T08:37:07;14.23;;;9.47;;
77581;SDS011;66726;52.388;9.986;2023-08-30T08:39:41;9.90;;;7.87;;
77581;SDS011;66726;52.388;9.986;2023-08-30T08:42:18;9.17;;;8.23;;
77581;SDS011;66726;52.388;9.986;2023-08-30T08:44:53;9.77;;;8.77;;
77581;SDS011;66726;52.388;9.986;2023-08-30T08:47:27;10.13;;;8.67;;
77581;SDS011;66726;52.388;9.986;2023-08-30T08:50:01;10.80;;;9.50;;
77581;SDS011;66726;52.388;9.986;2023-08-30T08:52:36;10.87;;;8.90;;
77581;SDS011;66726;52.388;9.986;2023-08-30T08:55:29;8.57;;;7.73;;
77581;SDS011;66726;52.388;9.986;2023-08-30T08:58:04;9.87;;;8.40;;
77581;SDS011;66726;52.388;9.986;2023-08-30T09:00:36;12.13;;;8.60;;
77581;SDS011;66726;52.388;9.986;2023-08-30T09:03:08;10.70;;;8.57;;
77581;SDS011;66726;52.388;9.986;2023-08-30T09:05:44;8.50;;;7.60;;
77581;SDS011;66726;52.388;9.986;2023-08-30T09:08:19;9.43;;;8.43;;
77581;SDS011;66726;52.388;9.986;2023-08-30T09:10:53;12.37;;;8.80;;
77581;SDS011;66726;52.388;9.986;2023-08-30T09:13:27;11.07;;;8.87;;
77581;SDS011;66726;52.388;9.986;2023-08-30T09:15:58;9.33;;;8.40;;
77581;SDS011;66726;52.388;9.986;2023-08-30T09:18:40;12.73;;;10.37;;
77581;SDS011;66726;52.388;9.986;2023-08-30T09:21:29;9.83;;;8.83;;
77581;SDS011;66726;52.388;9.986;2023-08-30T09:24:03;11.47;;;9.67;;
77581;SDS011;66726;52.388;9.986;2023-08-30T09:26:37;11.57;;;9.70;;
77581;SDS011;66726;52.388;9.986;2023-08-30T09:29:17;10.43;;;8.70;;
77581;SDS011;66726;52.388;9.986;2023-08-30T09:31:52;11.40;;;9.33;;
77581;SDS011;66726;52.388;9.986;2023-08-30T09:34:25;10.53;;;9.43;;
77581;SDS011;66726;52.388;9.986;2023-08-30T09:36:57;12.13;;;10.93;;
77581;SDS011;66726;52.388;9.986;2023-08-30T09:39:34;13.83;;;11.90;;
77581;SDS011;66726;52.388;9.986;2023-08-30T09:42:15;13.60;;;9.90;;
77581;SDS011;66726;52.388;9.986;2023-08-30T09:44:48;11.20;;;9.63;;
77581;SDS011;66726;52.388;9.986;2023-08-30T09:47:20;12.47;;;10.13;;
77581;SDS011;66726;52.388;9.986;2023-08-30T09:49:56;8.90;;;7.87;;
77581;SDS011;66726;52.388;9.986;2023-08-30T09:52:32;11.67;;;10.47;;
77581;SDS011;66726;52.388;9.986;2023-08-30T09:55:07;13.30;;;11.97;;
77581;SDS011;66726;52.388;9.986;2023-08-30T09:57:40;15.57;;;11.90;;
77581;SDS011;66726;52.388;9.986;2023-08-30T10:00:15;17.37;;;13.20;;
77581;SDS011;66726;52.388;9.986;2023-08-30T10:02:47;12.80;;;11.37;;
77581;SDS011;66726;52.388;9.986;2023-08-30T10:05:41;13.47;;;11.13;;
77581;SDS011;66726;52.388;9.986;2023-08-30T10:08:14;12.17;;;9.23;;
77581;SDS011;66726;52.388;9.986;2023-08-30T10:10:49;11.43;;;10.33;;
77581;SDS011;66726;52.388;9.986;2023-08-30T10:13:21;12.50;;;10.27;;
77581;SDS011;66726;52.388;9.986;2023-08-30T10:15:56;12.67;;;10.27;;
77581;SDS011;66726;52.388;9.986;2023-08-30T10:18:33;11.33;;;10.23;;
77581;SDS011;66726;52.388;9.986;2023-08-30T10:21:17;11.77;;;10.03;;
77581;SDS011;66726;52.388;9.986;2023-08-30T10:23:50;9.80;;;8.80;;
77581;SDS011;66726;52.388;9.986;2023-08-30T10:26:26;12.27;;;10.83;;
77581;SDS011;66726;52.388;9.986;2023-08-30T10:29:00;12.90;;;11.13;;
77581;SDS011;66726;52.388;9.986;2023-08-30T10:31:37;11.47;;;9.70;;
77581;SDS011;66726;52.388;9.986;2023-08-30T10:34:13;13.47;;;11.60;;
77581;SDS011;66726;52.388;9.986;2023-08-30T10:36:55;14.80;;;12.50;;
77581;SDS011;66726;52.388;9.986;2023-08-30T10:39:33;11.30;;;10.13;;
77581;SDS011;66726;52.388;9.986;2023-08-30T10:42:11;12.20;;;10.60;;
77581;SDS011;66726;52.388;9.986;2023-08-30T10:44:49;14.20;;;11.83;;
77581;SDS011;66726;52.388;9.986;2023-08-30T10:47:39;11.47;;;9.50;;
77581;SDS011;66726;52.388;9.986;2023-08-30T10:50:11;11.40;;;10.30;;
77581;SDS011;66726;52.388;9.986;2023-08-30T10:52:43;10.80;;;9.60;;
77581;SDS011;66726;52.388;9.986;2023-08-30T10:55:24;10.77;;;9.67;;
77581;SDS011;66726;52.388;9.986;2023-08-30T10:58:00;9.80;;;8.80;;
77581;SDS011;66726;52.388;9.986;2023-08-30T11:00:32;10.33;;;8.60;;
77581;SDS011;66726;52.388;9.986;2023-08-30T11:03:10;9.23;;;8.00;;
77581;SDS011;66726;52.388;9.986;2023-08-30T11:05:43;8.67;;;7.63;;
77581;SDS011;66726;52.388;9.986;2023-08-30T11:08:16;8.30;;;7.50;;
77581;SDS011;66726;52.388;9.986;2023-08-30T11:10:48;9.43;;;8.53;;
77581;SDS011;66726;52.388;9.986;2023-08-30T11:13:30;10.73;;;9.67;;
77581;SDS011;66726;52.388;9.986;2023-08-30T11:16:01;11.10;;;9.57;;
77581;SDS011;66726;52.388;9.986;2023-08-30T11:18:36;8.20;;;7.33;;
77581;SDS011;66726;52.388;9.986;2023-08-30T11:21:09;11.87;;;10.67;;
77581;SDS011;66726;52.388;9.986;2023-08-30T11:23:40;11.20;;;10.00;;
77581;SDS011;66726;52.388;9.986;2023-08-30T11:26:14;11.57;;;10.10;;
77581;SDS011;66726;52.388;9.986;2023-08-30T11:28:48;9.83;;;8.50;;
77581;SDS011;66726;52.388;9.986;2023-08-30T11:31:20;10.57;;;9.57;;
77581;SDS011;66726;52.388;9.986;2023-08-30T11:33:54;11.53;;;8.90;;
77581;SDS011;66726;52.388;9.986;2023-08-30T11:36:27;10.13;;;9.13;;
77581;SDS011;66726;52.388;9.986;2023-08-30T11:39:03;10.73;;;8.20;;
77581;SDS011;66726;52.388;9.986;2023-08-30T11:41:37;8.33;;;7.53;;
77581;SDS011;66726;52.388;9.986;2023-08-30T11:44:10;8.83;;;7.97;;
77581;SDS011;66726;52.388;9.986;2023-08-30T11:46:42;10.57;;;8.23;;
77581;SDS011;66726;52.388;9.986;2023-08-30T11:49:16;8.80;;;7.87;;
77581;SDS011;66726;52.388;9.986;2023-08-30T11:51:47;8.73;;;7.83;;
77581;SDS011;66726;52.388;9.986;2023-08-30T11:54:21;8.47;;;6.87;;
77581;SDS011;66726;52.388;9.986;2023-08-30T11:56:54;8.63;;;7.27;;
77581;SDS011;66726;52.388;9.986;2023-08-30T11:59:28;9.07;;;6.80;;
77581;SDS011;66726;52.388;9.986;2023-08-30T12:02:03;9.57;;;8.23;;
77581;SDS011;66726;52.388;9.986;2023-08-30T12:04:39;7.97;;;7.27;;
77581;SDS011;66726;52.388;9.986;2023-08-30T12:07:20;7.00;;;6.30;;
77581;SDS011;66726;52.388;9.986;2023-08-30T12:10:03;6.73;;;6.00;;
77581;SDS011;66726;52.388;9.986;2023-08-30T12:12:36;7.37;;;6.53;;
77581;SDS011;66726;52.388;9.986;2023-08-30T12:15:15;7.90;;;7.20;;
77581;SDS011;66726;52.388;9.986;2023-08-30T12:17:51;7.40;;;6.13;;
77581;SDS011;66726;52.388;9.986;2023-08-30T12:20:32;7.30;;;6.60;;
77581;SDS011;66726;52.388;9.986;2023-08-30T12:23:05;7.93;;;6.07;;
77581;SDS011;66726;52.388;9.986;2023-08-30T12:25:56;7.80;;;6.20;;
77581;SDS011;66726;52.388;9.986;2023-08-30T12:28:28;8.03;;;6.13;;
77581;SDS011;66726;52.388;9.986;2023-08-30T12:31:03;8.07;;;6.20;;
77581;SDS011;66726;52.388;9.986;2023-08-30T12:33:36;6.27;;;5.77;;
77581;SDS011;66726;52.388;9.986;2023-08-30T12:36:08;7.87;;;6.93;;
77581;SDS011;66726;52.388;9.986;2023-08-30T12:38:40;6.97;;;6.33;;
77581;SDS011;66726;52.388;9.986;2023-08-30T12:41:13;7.43;;;5.40;;
77581;SDS011;66726;52.388;9.986;2023-08-30T12:43:47;8.27;;;7.30;;
77581;SDS011;66726;52.388;9.986;2023-08-30T12:46:20;8.70;;;7.90;;
77581;SDS011;66726;52.388;9.986;2023-08-30T12:48:51;7.10;;;6.40;;
77581;SDS011;66726;52.388;9.986;2023-08-30T12:51:25;8.03;;;7.30;;
77581;SDS011;66726;52.388;9.986;2023-08-30T12:53:57;6.43;;;5.83;;
77581;SDS011;66726;52.388;9.986;2023-08-30T12:56:29;8.17;;;5.77;;
77581;SDS011;66726;52.388;9.986;2023-08-30T12:59:01;10.50;;;6.60;;
77581;SDS011;66726;52.388;9.986;2023-08-30T13:01:34;5.73;;;4.97;;
77581;SDS011;66726;52.388;9.986;2023-08-30T13:04:06;5.30;;;4.80;;
77581;SDS011;66726;52.388;9.986;2023-08-30T13:06:38;6.60;;;5.23;;
77581;SDS011;66726;52.388;9.986;2023-08-30T13:09:10;5.20;;;4.70;;
77581;SDS011;66726;52.388;9.986;2023-08-30T13:11:43;7.37;;;4.97;;
77581;SDS011;66726;52.388;9.986;2023-08-30T13:14:14;6.03;;;5.03;;
77581;SDS011;66726;52.388;9.986;2023-08-30T13:16:47;6.63;;;5.07;;
77581;SDS011;66726;52.388;9.986;2023-08-30T13:19:19;6.67;;;6.07;;
77581;SDS011;66726;52.388;9.986;2023-08-30T13:21:51;6.30;;;5.80;;
77581;SDS011;66726;52.388;9.986;2023-08-30T13:24:23;5.73;;;4.87;;
77581;SDS011;66726;52.388;9.986;2023-08-30T13:26:56;6.40;;;5.53;;
77581;SDS011;66726;52.388;9.986;2023-08-30T13:29:28;9.00;;;6.87;;
77581;SDS011;66726;52.388;9.986;2023-08-30T13:32:01;8.93;;;6.57;;
77581;SDS011;66726;52.388;9.986;2023-08-30T13:34:34;7.47;;;6.50;;
77581;SDS011;66726;52.388;9.986;2023-08-30T13:37:06;7.00;;;6.30;;
77581;SDS011;66726;52.388;9.986;2023-08-30T13:39:38;10.77;;;6.57;;
77581;SDS011;66726;52.388;9.986;2023-08-30T13:42:10;8.00;;;6.10;;
77581;SDS011;66726;52.388;9.986;2023-08-30T13:44:42;8.57;;;5.70;;
77581;SDS011;66726;52.388;9.986;2023-08-30T13:47:15;6.53;;;5.87;;
77581;SDS011;66726;52.388;9.986;2023-08-30T13:49:47;7.03;;;6.33;;
77581;SDS011;66726;52.388;9.986;2023-08-30T13:52:19;6.60;;;6.03;;
77581;SDS011;66726;52.388;9.986;2023-08-30T13:54:50;9.43;;;5.77;;
77581;SDS011;66726;52.388;9.986;2023-08-30T13:57:22;7.13;;;6.03;;
77581;SDS011;66726;52.388;9.986;2023-08-30T13:59:54;7.97;;;5.57;;
77581;SDS011;66726;52.388;9.986;2023-08-30T14:02:30;5.80;;;5.00;;
77581;SDS011;66726;52.388;9.986;2023-08-30T14:05:01;5.83;;;5.00;;
77581;SDS011;66726;52.388;9.986;2023-08-30T14:07:35;6.93;;;5.20;;
77581;SDS011;66726;52.388;9.986;2023-08-30T14:10:07;7.13;;;5.43;;
77581;SDS011;66726;52.388;9.986;2023-08-30T14:12:46;5.13;;;4.73;;
77581;SDS011;66726;52.388;9.986;2023-08-30T14:15:20;20.00;;;6.30;;
77581;SDS011;66726;52.388;9.986;2023-08-30T14:17:53;28.60;;;6.97;;
77581;SDS011;66726;52.388;9.986;2023-08-30T14:20:25;5.20;;;3.70;;
77581;SDS011;66726;52.388;9.986;2023-08-30T14:22:57;7.40;;;4.07;;
77581;SDS011;66726;52.388;9.986;2023-08-30T14:25:29;4.30;;;3.90;;
77581;SDS011;66726;52.388;9.986;2023-08-30T14:28:02;4.90;;;3.77;;
77581;SDS011;66726;52.388;9.986;2023-08-30T14:30:35;4.90;;;4.00;;
77581;SDS011;66726;52.388;9.986;2023-08-30T14:33:09;41.23;;;8.17;;
77581;SDS011;66726;52.388;9.986;2023-08-30T14:35:41;5.13;;;4.03;;
77581;SDS011;66726;52.388;9.986;2023-08-30T14:38:14;7.03;;;3.70;;
77581;SDS011;66726;52.388;9.986;2023-08-30T14:40:54;5.47;;;4.23;;
77581;SDS011;66726;52.388;9.986;2023-08-30T14:43:25;7.23;;;4.20;;
77581;SDS011;66726;52.388;9.986;2023-08-30T14:46:00;6.17;;;4.07;;
77581;SDS011;66726;52.388;9.986;2023-08-30T14:48:39;4.83;;;4.23;;
77581;SDS011;66726;52.388;9.986;2023-08-30T14:51:11;6.13;;;3.80;;
77581;SDS011;66726;52.388;9.986;2023-08-30T14:53:42;3.90;;;3.43;;
77581;SDS011;66726;52.388;9.986;2023-08-30T14:56:14;4.40;;;3.70;;
77581;SDS011;66726;52.388;9.986;2023-08-30T14:58:46;4.30;;;3.53;;
77581;SDS011;66726;52.388;9.986;2023-08-30T15:01:19;7.83;;;4.17;;
77581;SDS011;66726;52.388;9.986;2023-08-30T15:03:52;7.57;;;3.93;;
77581;SDS011;66726;52.388;9.986;2023-08-30T15:06:25;7.87;;;4.33;;
77581;SDS011;66726;52.388;9.986;2023-08-30T15:08:58;17.20;;;6.20;;
77581;SDS011;66726;52.388;9.986;2023-08-30T15:11:30;8.57;;;5.23;;
77581;SDS011;66726;52.388;9.986;2023-08-30T15:14:02;8.70;;;5.43;;
77581;SDS011;66726;52.388;9.986;2023-08-30T15:16:34;7.00;;;4.70;;
77581;SDS011;66726;52.388;9.986;2023-08-30T15:19:07;5.20;;;4.70;;
77581;SDS011;66726;52.388;9.986;2023-08-30T15:21:39;8.17;;;5.10;;